createdAt,value
2019-04-16T00:00:44.745Z,31.50
2019-04-16T00:03:12.021Z,31.80
2019-04-16T00:05:38.440Z,31.80
2019-04-16T00:08:10.061Z,32.40
2019-04-16T00:10:30.891Z,31.70
2019-04-16T00:12:57.070Z,31.60
2019-04-16T00:15:23.332Z,31.70
2019-04-16T00:17:49.576Z,31.50
2019-04-16T00:20:15.792Z,31.70
2019-04-16T00:22:42.021Z,31.60
2019-04-16T00:25:08.260Z,31.60
2019-04-16T00:27:34.485Z,31.70
2019-04-16T00:30:04.100Z,31.60
2019-04-16T00:32:26.936Z,31.60
2019-04-16T00:34:53.166Z,31.50
2019-04-16T00:37:21.252Z,31.50
2019-04-16T00:39:45.634Z,31.50
2019-04-16T00:42:11.852Z,31.40
2019-04-16T00:44:38.087Z,31.50
2019-04-16T00:47:04.315Z,31.40
2019-04-16T00:49:31.760Z,31.50
2019-04-16T00:51:57.921Z,31.50
2019-04-16T00:54:24.225Z,32.20
2019-04-16T00:56:50.469Z,31.50
2019-04-16T00:59:17.908Z,31.40
2019-04-16T01:01:44.217Z,31.40
2019-04-16T01:04:10.776Z,31.50
2019-04-16T01:06:37.982Z,31.50
2019-04-16T01:09:03.254Z,31.40
2019-04-16T01:11:29.458Z,31.50
2019-04-16T01:13:56.324Z,31.50
2019-04-16T01:16:21.907Z,31.50
2019-04-16T01:18:48.148Z,31.30
2019-04-16T01:21:14.941Z,31.40
2019-04-16T01:23:40.596Z,31.30
2019-04-16T01:26:06.829Z,31.40
2019-04-16T01:28:33.068Z,31.30
2019-04-16T01:30:59.227Z,31.20
2019-04-16T01:33:25.396Z,31.40
2019-04-16T01:35:52.754Z,31.30
2019-04-16T01:38:17.938Z,31.30
2019-04-16T01:40:44.125Z,31.90
2019-04-16T01:43:10.337Z,31.30
2019-04-16T01:45:36.512Z,31.30
2019-04-16T01:48:06.902Z,31.10
2019-04-16T01:50:28.900Z,31.20
2019-04-16T01:52:55.069Z,31.20
2019-04-16T01:55:25.524Z,31.30
2019-04-16T01:57:47.440Z,31.30
2019-04-16T02:00:13.603Z,31.30
2019-04-16T02:02:39.774Z,31.20
2019-04-16T02:05:05.940Z,31.20
2019-04-16T02:07:32.149Z,31.20
2019-04-16T02:09:58.321Z,31.20
2019-04-16T02:12:24.489Z,31.90
2019-04-16T02:14:51.143Z,31.10
2019-04-16T02:17:16.864Z,31.00
2019-04-16T02:19:43.030Z,31.20
2019-04-16T02:22:12.538Z,31.20
2019-04-16T02:24:35.400Z,31.20
2019-04-16T02:27:01.574Z,31.30
2019-04-16T02:29:30.588Z,31.20
2019-04-16T02:31:53.977Z,31.10
2019-04-16T02:34:20.151Z,31.00
2019-04-16T02:36:47.104Z,31.30
2019-04-16T02:39:13.265Z,31.30
2019-04-16T02:41:39.430Z,31.10
2019-04-16T02:44:05.598Z,31.10
2019-04-16T02:46:32.732Z,31.20
2019-04-16T02:48:57.989Z,31.10
2019-04-16T02:51:24.164Z,31.20
2019-04-16T02:53:50.338Z,31.10
2019-04-16T02:56:18.933Z,31.20
2019-04-16T02:58:42.773Z,31.20
2019-04-16T03:01:08.933Z,31.20
2019-04-16T03:03:35.110Z,31.20
2019-04-16T03:06:01.872Z,31.30
2019-04-16T03:08:27.514Z,31.30
2019-04-16T03:10:53.701Z,31.30
2019-04-16T03:13:23.066Z,31.10
2019-04-16T03:15:46.142Z,31.10
2019-04-16T03:18:14.990Z,31.20
2019-04-16T03:20:38.534Z,31.10
2019-04-16T03:23:05.867Z,31.20
2019-04-16T03:25:30.921Z,31.10
2019-04-16T03:27:57.864Z,31.10
2019-04-16T03:30:24.053Z,31.10
2019-04-16T03:32:50.235Z,31.20
2019-04-16T03:35:16.423Z,31.30
2019-04-16T03:37:42.596Z,31.10
2019-04-16T03:40:16.491Z,31.10
2019-04-16T03:42:34.988Z,31.20
2019-04-16T03:45:01.198Z,31.20
2019-04-16T03:47:27.366Z,31.10
2019-04-16T03:49:53.529Z,31.00
2019-04-16T03:52:19.685Z,31.10
2019-04-16T03:54:45.855Z,31.20
2019-04-16T03:57:12.037Z,31.10
2019-04-16T03:59:40.074Z,31.20
2019-04-16T04:02:04.418Z,31.00
2019-04-16T04:04:30.609Z,31.00
2019-04-16T04:06:56.781Z,31.10
2019-04-16T04:09:23.009Z,31.20
2019-04-16T04:11:49.170Z,31.20
2019-04-16T04:14:15.353Z,31.10
2019-04-16T04:16:41.512Z,31.10
2019-04-16T04:19:07.991Z,31.00
2019-04-16T04:21:33.917Z,31.10
2019-04-16T04:24:00.934Z,31.10
2019-04-16T04:26:26.306Z,31.20
2019-04-16T04:28:52.639Z,31.20
2019-04-16T04:31:18.744Z,31.20
2019-04-16T04:33:44.917Z,31.20
2019-04-16T04:36:11.084Z,31.00
2019-04-16T04:38:38.255Z,31.20
2019-04-16T04:41:03.485Z,31.10
2019-04-16T04:43:31.991Z,31.10
2019-04-16T04:45:55.871Z,31.10
2019-04-16T04:48:24.163Z,31.10
2019-04-16T04:50:48.276Z,30.90
2019-04-16T04:53:15.643Z,31.10
2019-04-16T04:55:40.659Z,30.90
2019-04-16T04:58:06.832Z,31.10
2019-04-16T05:00:33.023Z,31.00
2019-04-16T05:02:59.197Z,31.00
2019-04-16T05:05:25.929Z,31.70
2019-04-16T05:07:51.577Z,31.00
2019-04-16T05:10:17.763Z,30.90
2019-04-16T05:12:43.933Z,31.00
2019-04-16T05:15:10.121Z,31.10
2019-04-16T05:17:38.490Z,30.90
2019-04-16T05:20:02.505Z,31.10
2019-04-16T05:22:28.667Z,31.10
2019-04-16T05:25:01.043Z,31.00
2019-04-16T05:27:21.066Z,30.90
2019-04-16T05:29:48.867Z,30.90
2019-04-16T05:32:13.441Z,30.90
2019-04-16T05:34:39.614Z,30.70
2019-04-16T05:37:05.782Z,30.70
2019-04-16T05:39:31.949Z,30.60
2019-04-16T05:41:58.298Z,30.60
2019-04-16T05:44:24.461Z,30.70
2019-04-16T05:46:50.633Z,30.60
2019-04-16T05:49:16.819Z,30.70
2019-04-16T05:51:43.281Z,30.50
2019-04-16T05:54:12.379Z,30.60
2019-04-16T05:56:35.669Z,30.60
2019-04-16T05:59:02.719Z,30.50
2019-04-16T06:01:28.049Z,30.00
2019-04-16T06:03:54.311Z,30.40
2019-04-16T06:06:20.447Z,30.50
2019-04-16T06:08:46.608Z,30.40
2019-04-16T06:11:26.707Z,30.50
2019-04-16T06:13:41.408Z,30.50
2019-04-16T06:16:05.241Z,30.40
2019-04-16T06:18:37.106Z,30.40
2019-04-16T06:20:58.397Z,30.40
2019-04-16T06:23:24.739Z,30.30
2019-04-16T06:25:51.695Z,30.40
2019-04-16T06:28:17.860Z,30.30
2019-04-16T06:30:44.013Z,30.30
2019-04-16T06:33:10.181Z,30.30
2019-04-16T06:35:43.048Z,30.30
2019-04-16T06:38:02.566Z,30.20
2019-04-16T06:40:31.687Z,30.30
2019-04-16T06:42:54.972Z,30.40
2019-04-16T06:45:21.912Z,30.30
2019-04-16T06:47:48.083Z,30.30
2019-04-16T06:50:14.574Z,30.30
2019-04-16T06:52:40.489Z,30.30
2019-04-16T06:55:06.645Z,30.30
2019-04-16T06:57:32.829Z,30.30
2019-04-16T06:59:59.491Z,30.30
2019-04-16T07:02:25.380Z,30.30
2019-04-16T07:04:51.433Z,30.40
2019-04-16T07:07:21.554Z,30.40
2019-04-16T07:09:46.026Z,30.30
2019-04-16T07:12:10.791Z,30.30
2019-04-16T07:14:36.958Z,30.30
2019-04-16T07:17:03.610Z,30.40
2019-04-16T07:19:29.770Z,30.40
2019-04-16T07:21:55.924Z,30.40
2019-04-16T07:24:23.325Z,30.30
2019-04-16T07:26:48.554Z,30.30
2019-04-16T07:29:14.602Z,30.40
2019-04-16T07:31:40.774Z,30.30
2019-04-16T07:34:07.700Z,30.30
2019-04-16T07:36:33.865Z,30.30
2019-04-16T07:39:00.048Z,30.40
2019-04-16T07:41:26.216Z,30.50
2019-04-16T07:43:52.464Z,30.40
2019-04-16T07:46:18.588Z,30.30
2019-04-16T07:48:44.786Z,30.40
2019-04-16T07:51:10.941Z,30.40
2019-04-16T07:53:37.119Z,30.40
2019-04-16T07:56:03.280Z,30.50
2019-04-16T07:58:29.495Z,30.50
2019-04-16T08:00:55.656Z,30.40
2019-04-16T08:03:23.576Z,30.40
2019-04-16T08:05:48.033Z,30.40
2019-04-16T08:08:14.209Z,30.40
2019-04-16T08:10:40.378Z,30.50
2019-04-16T08:13:06.555Z,30.50
2019-04-16T08:15:32.728Z,30.50
2019-04-16T08:17:58.902Z,30.50
2019-04-16T08:20:25.073Z,30.60
2019-04-16T08:22:51.285Z,30.60
2019-04-16T08:25:17.502Z,30.50
2019-04-16T08:27:46.788Z,30.50
2019-04-16T08:30:10.036Z,30.50
2019-04-16T08:32:36.204Z,30.50
2019-04-16T08:35:02.397Z,30.60
2019-04-16T08:37:28.572Z,30.60
2019-04-16T08:39:54.765Z,30.60
2019-04-16T08:42:24.219Z,30.60
2019-04-16T08:44:47.891Z,30.70
2019-04-16T08:47:14.072Z,30.70
2019-04-16T08:49:40.376Z,30.80
2019-04-16T08:52:09.906Z,30.80
2019-04-16T08:54:32.746Z,30.80
2019-04-16T08:56:58.917Z,30.70
2019-04-16T08:59:25.093Z,30.80
2019-04-16T09:01:51.391Z,30.80
2019-04-16T09:04:17.478Z,30.90
2019-04-16T09:06:46.517Z,30.90
2019-04-16T09:09:13.435Z,31.70
2019-04-16T09:11:36.280Z,31.00
2019-04-16T09:14:02.284Z,31.00
2019-04-16T09:16:28.465Z,31.00
2019-04-16T09:18:54.630Z,31.00
2019-04-16T09:21:20.821Z,31.00
2019-04-16T09:23:46.998Z,31.10
2019-04-16T09:26:15.502Z,31.10
2019-04-16T09:28:39.367Z,31.20
2019-04-16T09:31:05.647Z,31.20
2019-04-16T09:33:33.567Z,31.20
2019-04-16T09:35:57.975Z,31.20
2019-04-16T09:38:24.310Z,31.30
2019-04-16T09:40:50.481Z,31.30
2019-04-16T09:43:18.179Z,31.30
2019-04-16T09:45:42.876Z,31.40
2019-04-16T09:48:09.040Z,31.40
2019-04-16T09:50:35.198Z,31.50
2019-04-16T09:53:01.954Z,31.50
2019-04-16T09:55:27.559Z,31.50
2019-04-16T09:57:53.746Z,31.50
2019-04-16T10:00:20.404Z,31.60
2019-04-16T10:02:46.131Z,31.60
2019-04-16T10:05:12.721Z,31.60
2019-04-16T10:07:40.250Z,31.60
2019-04-16T10:10:04.705Z,31.70
2019-04-16T10:12:31.648Z,31.80
2019-04-16T10:14:57.831Z,31.70
2019-04-16T10:17:24.012Z,31.70
2019-04-16T10:19:50.186Z,31.80
2019-04-16T10:22:16.361Z,31.70
2019-04-16T10:24:42.523Z,31.80
2019-04-16T10:27:08.694Z,31.80
2019-04-16T10:29:35.677Z,31.80
2019-04-16T10:32:01.869Z,31.80
2019-04-16T10:34:28.051Z,31.80
2019-04-16T10:36:54.217Z,31.80
2019-04-16T10:39:20.404Z,31.90
2019-04-16T10:41:46.574Z,32.00
2019-04-16T10:44:12.776Z,32.00
2019-04-16T10:46:38.946Z,32.00
2019-04-16T10:49:05.158Z,32.00
2019-04-16T10:51:31.324Z,32.10
2019-04-16T10:53:57.508Z,32.10
2019-04-16T10:56:23.676Z,32.10
2019-04-16T10:58:49.891Z,32.10
2019-04-16T11:01:16.221Z,32.20
2019-04-16T11:03:42.411Z,32.30
2019-04-16T11:06:08.623Z,32.20
2019-04-16T11:08:34.961Z,32.30
2019-04-16T11:11:01.032Z,32.30
2019-04-16T11:13:27.366Z,32.30
2019-04-16T11:15:53.533Z,32.40
2019-04-16T11:18:19.693Z,32.30
2019-04-16T11:20:45.904Z,32.40
2019-04-16T11:23:12.056Z,32.30
2019-04-16T11:25:38.238Z,32.40
2019-04-16T11:28:04.536Z,32.40
2019-04-16T11:30:30.653Z,32.50
2019-04-16T11:32:56.940Z,32.50
2019-04-16T11:35:23.859Z,32.50
2019-04-16T11:37:50.051Z,32.40
2019-04-16T11:40:16.247Z,32.40
2019-04-16T11:42:42.410Z,32.50
2019-04-16T11:45:08.612Z,32.60
2019-04-16T11:47:34.898Z,32.70
2019-04-16T11:50:01.040Z,32.60
2019-04-16T11:52:27.260Z,32.70
2019-04-16T11:54:53.428Z,32.70
2019-04-16T11:57:19.706Z,32.70
2019-04-16T11:59:45.946Z,32.80
2019-04-16T12:02:12.162Z,32.80
2019-04-16T12:04:38.375Z,32.80
2019-04-16T12:07:06.047Z,33.50
2019-04-16T12:09:30.748Z,32.90
2019-04-16T12:11:56.930Z,32.80
2019-04-16T12:14:32.425Z,32.90
2019-04-16T12:16:50.096Z,33.00
2019-04-16T12:19:16.284Z,33.00
2019-04-16T12:21:43.395Z,33.10
2019-04-16T12:24:09.654Z,33.10
2019-04-16T12:26:36.731Z,33.10
2019-04-16T12:29:02.869Z,33.10
2019-04-16T12:31:29.065Z,33.10
2019-04-16T12:33:55.231Z,33.90
2019-04-16T12:36:21.400Z,33.20
2019-04-16T12:38:47.621Z,33.20
2019-04-16T12:41:13.807Z,33.30
2019-04-16T12:43:40.012Z,33.40
2019-04-16T12:46:06.210Z,33.40
2019-04-16T12:48:32.428Z,33.40
2019-04-16T12:50:59.373Z,33.40
2019-04-16T12:53:25.572Z,33.40
2019-04-16T12:55:51.936Z,33.50
2019-04-16T12:58:20.069Z,33.50
2019-04-16T13:00:45.091Z,33.50
2019-04-16T13:03:16.444Z,33.50
2019-04-16T13:05:37.482Z,33.50
2019-04-16T13:08:03.656Z,33.50
2019-04-16T13:10:29.817Z,33.50
2019-04-16T13:12:56.005Z,33.70
2019-04-16T13:15:22.174Z,33.60
2019-04-16T13:17:50.928Z,33.60
2019-04-16T13:20:14.557Z,33.70
2019-04-16T13:22:40.738Z,33.70
2019-04-16T13:25:06.901Z,33.70
2019-04-16T13:27:33.074Z,33.70
2019-04-16T13:30:01.879Z,33.80
2019-04-16T13:32:27.803Z,33.70
2019-04-16T13:34:51.673Z,33.70
2019-04-16T13:37:17.865Z,33.70
2019-04-16T13:39:44.030Z,33.80
2019-04-16T13:42:10.960Z,33.90
2019-04-16T13:44:37.667Z,33.90
2019-04-16T13:47:03.947Z,33.90
2019-04-16T13:49:31.675Z,34.00
2019-04-16T13:51:57.523Z,34.70
2019-04-16T13:54:23.333Z,33.90
2019-04-16T13:56:51.503Z,33.90
2019-04-16T13:59:16.518Z,34.00
2019-04-16T14:01:46.002Z,34.00
2019-04-16T14:04:08.892Z,33.90
2019-04-16T14:06:35.056Z,34.00
2019-04-16T14:09:01.245Z,34.00
2019-04-16T14:11:27.417Z,34.10
2019-04-16T14:13:53.592Z,34.10
2019-04-16T14:16:19.752Z,34.10
2019-04-16T14:18:45.919Z,34.10
2019-04-16T14:21:12.084Z,34.20
2019-04-16T14:23:38.257Z,34.10
2019-04-16T14:26:04.425Z,34.20
2019-04-16T14:28:34.280Z,34.20
2019-04-16T14:30:56.935Z,34.30
2019-04-16T14:33:23.149Z,34.30
2019-04-16T14:35:49.342Z,34.20
2019-04-16T14:38:15.549Z,34.20
2019-04-16T14:40:43.095Z,34.20
2019-04-16T14:43:08.711Z,34.30
2019-04-16T14:45:53.654Z,34.20
2019-04-16T14:48:01.132Z,34.30
2019-04-16T14:50:27.324Z,34.30
2019-04-16T14:52:53.509Z,34.20
2019-04-16T14:55:19.879Z,34.30
2019-04-16T14:57:46.076Z,34.10
2019-04-16T15:00:12.257Z,34.20
2019-04-16T15:02:38.445Z,34.20
2019-04-16T15:05:04.644Z,34.20
2019-04-16T15:07:30.861Z,34.20
2019-04-16T15:09:57.065Z,34.10
2019-04-16T15:12:23.259Z,34.10
2019-04-16T15:14:49.459Z,34.00
2019-04-16T15:17:15.663Z,34.00
2019-04-16T15:19:41.881Z,34.00
2019-04-16T15:22:08.149Z,34.00
2019-04-16T15:24:34.318Z,34.00
2019-04-16T15:27:00.515Z,33.90
2019-04-16T15:29:27.509Z,33.90
2019-04-16T15:31:53.692Z,33.80
2019-04-16T15:34:19.882Z,34.00
2019-04-16T15:36:49.850Z,33.90
2019-04-16T15:39:12.306Z,33.90
2019-04-16T15:41:38.620Z,33.90
2019-04-16T15:44:04.814Z,33.90
2019-04-16T15:46:34.760Z,33.80
2019-04-16T15:48:57.245Z,33.80
2019-04-16T15:51:23.444Z,33.80
2019-04-16T15:53:50.558Z,33.80
2019-04-16T15:56:15.871Z,33.80
2019-04-16T15:58:42.063Z,33.80
2019-04-16T16:01:08.289Z,33.80
2019-04-16T16:03:34.472Z,33.80
2019-04-16T16:06:00.695Z,33.80
2019-04-16T16:08:29.825Z,33.80
2019-04-16T16:10:53.299Z,33.70
2019-04-16T16:13:19.497Z,33.70
2019-04-16T16:15:45.714Z,33.80
2019-04-16T16:18:11.903Z,33.70
2019-04-16T16:20:38.121Z,33.70
2019-04-16T16:23:04.309Z,33.70
2019-04-16T16:25:30.493Z,33.70
2019-04-16T16:27:56.682Z,33.70
2019-04-16T16:30:22.878Z,33.70
2019-04-16T16:32:49.165Z,33.70
2019-04-16T16:35:17.737Z,33.90
2019-04-16T16:37:41.966Z,33.70
2019-04-16T16:40:11.887Z,33.70
2019-04-16T16:42:35.154Z,33.70
2019-04-16T16:45:02.836Z,33.70
2019-04-16T16:47:27.553Z,33.70
2019-04-16T16:49:53.747Z,33.80
2019-04-16T16:52:19.962Z,33.70
2019-04-16T16:54:46.147Z,33.80
2019-04-16T16:57:12.357Z,33.80
2019-04-16T16:59:38.544Z,33.80
2019-04-16T17:02:08.817Z,33.80
2019-04-16T17:04:30.994Z,33.70
2019-04-16T17:06:57.206Z,33.80
2019-04-16T17:09:23.401Z,33.70
2019-04-16T17:11:49.605Z,33.80
2019-04-16T17:14:15.797Z,33.70
2019-04-16T17:16:42.024Z,33.70
2019-04-16T17:19:08.237Z,33.80
2019-04-16T17:21:35.189Z,33.80
2019-04-16T17:24:01.397Z,33.70
2019-04-16T17:26:27.593Z,33.70
2019-04-16T17:28:54.648Z,33.70
2019-04-16T17:31:20.832Z,33.70
2019-04-16T17:33:47.023Z,33.60
2019-04-16T17:36:13.250Z,33.70
2019-04-16T17:38:39.454Z,33.70
2019-04-16T17:41:05.633Z,33.60
2019-04-16T17:43:31.817Z,33.60
2019-04-16T17:45:58.033Z,33.70
2019-04-16T17:48:24.225Z,33.70
2019-04-16T17:50:51.354Z,33.60
2019-04-16T17:53:16.661Z,33.70
2019-04-16T17:55:42.869Z,33.70
2019-04-16T17:58:09.852Z,33.70
2019-04-16T18:00:37.659Z,33.60
2019-04-16T18:03:04.202Z,33.70
2019-04-16T18:05:28.490Z,33.70
2019-04-16T18:07:54.748Z,33.70
2019-04-16T18:10:22.623Z,33.90
2019-04-16T18:12:47.192Z,33.80
2019-04-16T18:15:13.374Z,33.80
2019-04-16T18:17:46.982Z,33.90
2019-04-16T18:20:05.837Z,33.80
2019-04-16T18:22:32.018Z,33.80
2019-04-16T18:24:58.249Z,33.80
2019-04-16T18:27:25.469Z,33.80
2019-04-16T18:29:50.685Z,34.00
2019-04-16T18:32:16.879Z,33.90
2019-04-16T18:34:44.136Z,34.00
2019-04-16T18:37:09.316Z,33.90
2019-04-16T18:39:37.433Z,34.00
2019-04-16T18:42:01.863Z,33.90
2019-04-16T18:44:29.293Z,34.00
2019-04-16T18:46:54.208Z,34.00
2019-04-16T18:49:20.411Z,34.00
2019-04-16T18:51:46.602Z,34.00
2019-04-16T18:54:14.964Z,34.10
2019-04-16T18:56:39.045Z,34.00
2019-04-16T18:59:05.590Z,34.70
2019-04-16T19:01:32.661Z,34.10
2019-04-16T19:03:57.964Z,34.10
2019-04-16T19:06:24.164Z,34.10
2019-04-16T19:08:50.345Z,34.20
2019-04-16T19:11:20.159Z,34.10
2019-04-16T19:13:42.779Z,34.20
2019-04-16T19:16:08.969Z,34.30
2019-04-16T19:18:35.158Z,34.20
2019-04-16T19:21:01.500Z,34.30
2019-04-16T19:23:27.560Z,34.20
2019-04-16T19:25:55.405Z,34.30
2019-04-16T19:28:20.236Z,34.40
2019-04-16T19:30:46.191Z,34.30
2019-04-16T19:33:12.377Z,34.40
2019-04-16T19:35:39.318Z,34.40
2019-04-16T19:38:06.211Z,34.40
2019-04-16T19:40:31.773Z,34.40
2019-04-16T19:43:02.631Z,34.50
2019-04-16T19:45:25.406Z,34.50
2019-04-16T19:47:51.616Z,34.50
2019-04-16T19:50:17.803Z,34.60
2019-04-16T19:52:45.688Z,34.50
2019-04-16T19:55:12.682Z,34.60
2019-04-16T19:57:36.454Z,34.60
2019-04-16T20:00:02.681Z,34.60
2019-04-16T20:02:33.029Z,34.60
2019-04-16T20:04:55.092Z,34.60
2019-04-16T20:07:21.289Z,34.60
2019-04-16T20:09:47.498Z,34.60
2019-04-16T20:12:13.697Z,34.60
2019-04-16T20:14:39.905Z,34.60
2019-04-16T20:17:06.104Z,34.60
2019-04-16T20:19:32.281Z,34.70
2019-04-16T20:21:58.471Z,34.60
2019-04-16T20:24:24.660Z,34.70
2019-04-16T20:26:50.910Z,34.70
2019-04-16T20:29:17.105Z,34.70
2019-04-16T20:31:43.297Z,34.70
2019-04-16T20:34:12.392Z,34.70
2019-04-16T20:36:35.722Z,34.80
2019-04-16T20:39:02.186Z,34.70
2019-04-16T20:41:28.108Z,34.80
2019-04-16T20:43:54.296Z,34.70
2019-04-16T20:46:20.496Z,34.70
2019-04-16T20:48:46.707Z,34.80
2019-04-16T20:51:12.888Z,34.70
2019-04-16T20:53:41.302Z,34.80
2019-04-16T20:56:05.334Z,34.80
2019-04-16T20:58:32.364Z,34.80
2019-04-16T21:00:57.749Z,34.80
2019-04-16T21:03:23.958Z,34.80
2019-04-16T21:05:58.079Z,34.80
2019-04-16T21:08:17.164Z,34.90
2019-04-16T21:10:42.618Z,34.90
2019-04-16T21:13:08.815Z,34.90
2019-04-16T21:15:35.019Z,34.90
2019-04-16T21:18:01.235Z,34.90
2019-04-16T21:20:27.460Z,34.90
2019-04-16T21:22:56.538Z,35.00
2019-04-16T21:25:19.890Z,35.00
2019-04-16T21:27:46.068Z,35.00
2019-04-16T21:30:13.404Z,35.00
2019-04-16T21:32:38.497Z,35.10
2019-04-16T21:35:06.770Z,35.10
2019-04-16T21:37:30.914Z,35.20
2019-04-16T21:39:57.217Z,35.30
2019-04-16T21:42:23.349Z,35.30
2019-04-16T21:44:49.544Z,35.30
2019-04-16T21:47:15.730Z,35.30
2019-04-16T21:49:44.980Z,35.30
2019-04-16T21:52:08.217Z,35.30
2019-04-16T21:54:34.414Z,35.30
2019-04-16T21:57:00.614Z,35.40
2019-04-16T21:59:26.830Z,35.40
2019-04-16T22:01:53.031Z,35.40
2019-04-16T22:04:20.007Z,35.50
2019-04-16T22:06:49.039Z,35.50
2019-04-16T22:09:12.409Z,35.40
2019-04-16T22:11:43.441Z,35.50
2019-04-16T22:14:04.814Z,35.50
2019-04-16T22:16:31.005Z,35.50
2019-04-16T22:18:57.198Z,35.60
2019-04-16T22:21:23.377Z,35.50
2019-04-16T22:23:50.419Z,35.60
2019-04-16T22:26:15.788Z,35.60
2019-04-16T22:28:44.375Z,35.70
2019-04-16T22:31:08.424Z,35.70
2019-04-16T22:33:34.432Z,35.60
2019-04-16T22:36:00.632Z,35.70
2019-04-16T22:38:26.818Z,35.70
2019-04-16T22:40:54.998Z,35.70
2019-04-16T22:43:19.254Z,35.70
2019-04-16T22:45:45.452Z,35.70
2019-04-16T22:48:11.664Z,35.80
2019-04-16T22:50:38.675Z,35.80
2019-04-16T22:53:04.130Z,35.80
2019-04-16T22:55:30.342Z,35.80
2019-04-16T22:57:56.574Z,35.80
2019-04-16T23:00:22.745Z,35.80
2019-04-16T23:02:49.032Z,35.90
2019-04-16T23:05:15.159Z,35.90
2019-04-16T23:07:41.357Z,36.00
2019-04-16T23:10:07.545Z,35.90
2019-04-16T23:12:33.738Z,35.90
2019-04-16T23:14:59.926Z,35.90
2019-04-16T23:17:26.124Z,36.00
2019-04-16T23:19:54.670Z,35.90
2019-04-16T23:22:18.573Z,35.90
2019-04-16T23:24:44.755Z,35.90
2019-04-16T23:27:10.996Z,35.90
2019-04-16T23:29:37.226Z,36.00
2019-04-16T23:32:03.591Z,36.10
2019-04-16T23:34:29.663Z,36.10
2019-04-16T23:36:55.869Z,36.10
2019-04-16T23:39:22.828Z,36.00
2019-04-16T23:41:49.028Z,35.90
2019-04-16T23:44:15.213Z,36.10
2019-04-16T23:46:41.400Z,36.20
2019-04-16T23:49:07.603Z,36.20
2019-04-16T23:51:33.785Z,36.20
2019-04-16T23:54:00.273Z,36.20
2019-04-16T23:56:26.196Z,36.30
2019-04-16T23:58:52.394Z,36.20
